createdAt,value
2024-01-09T00:01:25.997Z,56.34
2024-01-09T00:03:53.149Z,56.15
2024-01-09T00:06:21.056Z,56.95
2024-01-09T00:08:48.390Z,56.71
2024-01-09T00:11:16.629Z,54.65
2024-01-09T00:13:43.963Z,56.30
2024-01-09T00:16:11.050Z,56.31
2024-01-09T00:18:38.393Z,56.76
2024-01-09T00:21:05.552Z,56.78
2024-01-09T00:23:33.126Z,55.39
2024-01-09T00:26:00.787Z,54.00
2024-01-09T00:28:30.808Z,55.52
2024-01-09T00:30:58.017Z,55.75
2024-01-09T00:33:25.383Z,56.30
2024-01-09T00:35:56.576Z,56.82
2024-01-09T00:38:23.690Z,57.43
2024-01-09T00:40:50.738Z,57.54
2024-01-09T00:43:17.825Z,58.93
2024-01-09T00:45:45.017Z,59.16
2024-01-09T00:48:12.404Z,59.61
2024-01-09T00:50:39.656Z,60.30
2024-01-09T00:53:06.812Z,60.42
2024-01-09T00:55:33.900Z,59.81
2024-01-09T00:58:00.958Z,60.99
2024-01-09T01:00:28.048Z,60.80
2024-01-09T01:02:55.162Z,61.50
2024-01-09T01:05:22.389Z,60.44
2024-01-09T01:07:49.530Z,59.35
2024-01-09T01:10:19.821Z,59.56
2024-01-09T01:12:48.202Z,59.73
2024-01-09T01:15:15.506Z,61.02
2024-01-09T01:17:43.009Z,59.30
2024-01-09T01:20:10.899Z,61.37
2024-01-09T01:22:38.462Z,61.62
2024-01-09T01:25:05.903Z,62.33
2024-01-09T01:27:32.965Z,62.54
2024-01-09T01:30:00.025Z,61.78
2024-01-09T01:32:27.260Z,61.48
2024-01-09T01:34:54.574Z,59.67
2024-01-09T01:37:21.662Z,60.38
2024-01-09T01:39:48.695Z,62.00
2024-01-09T01:42:15.927Z,60.47
2024-01-09T01:44:43.305Z,60.02
2024-01-09T01:47:10.901Z,61.01
2024-01-09T01:49:38.485Z,60.93
2024-01-09T01:52:06.176Z,62.48
2024-01-09T01:54:35.407Z,61.61
2024-01-09T01:57:04.138Z,61.26
2024-01-09T01:59:33.398Z,62.82
2024-01-09T02:02:03.392Z,62.50
2024-01-09T02:04:31.125Z,63.42
2024-01-09T02:06:58.881Z,64.19
2024-01-09T02:09:26.715Z,63.92
2024-01-09T02:11:54.424Z,61.88
2024-01-09T02:14:21.643Z,62.48
2024-01-09T02:16:48.734Z,63.75
2024-01-09T02:19:15.911Z,64.04
2024-01-09T02:21:43.423Z,63.24
2024-01-09T02:24:10.560Z,63.76
2024-01-09T02:26:59.919Z,64.67
2024-01-09T02:29:34.097Z,64.07
2024-01-09T02:32:03.789Z,65.39
2024-01-09T02:34:34.734Z,65.34
2024-01-09T02:37:02.095Z,65.75
2024-01-09T02:39:30.563Z,64.60
2024-01-09T02:41:57.716Z,63.91
2024-01-09T02:44:24.884Z,64.61
2024-01-09T02:46:51.984Z,64.75
2024-01-09T02:49:19.112Z,65.31
2024-01-09T02:51:46.171Z,65.00
2024-01-09T02:54:13.305Z,64.38
2024-01-09T02:56:40.877Z,63.84
2024-01-09T02:59:08.059Z,64.29
2024-01-09T03:01:35.136Z,64.66
2024-01-09T03:04:02.357Z,65.06
2024-01-09T03:06:29.576Z,63.41
2024-01-09T03:08:56.820Z,64.41
2024-01-09T03:11:24.001Z,64.97
2024-01-09T03:13:51.146Z,64.65
2024-01-09T03:16:18.297Z,64.98
2024-01-09T03:18:45.494Z,64.37
2024-01-09T03:21:13.151Z,65.61
2024-01-09T03:23:40.298Z,65.55
2024-01-09T03:26:07.602Z,64.60
2024-01-09T03:28:37.610Z,65.93
2024-01-09T03:31:04.802Z,67.68
2024-01-09T03:33:32.155Z,66.46
2024-01-09T03:36:00.016Z,65.14
2024-01-09T03:38:30.984Z,66.28
2024-01-09T03:40:58.111Z,65.88
2024-01-09T03:43:25.361Z,65.80
2024-01-09T03:45:58.168Z,65.59
2024-01-09T03:48:25.474Z,65.84
2024-01-09T03:50:56.619Z,66.02
2024-01-09T03:53:23.682Z,66.45
2024-01-09T03:55:50.826Z,66.03
2024-01-09T03:58:17.871Z,65.66
2024-01-09T04:00:45.044Z,66.16
2024-01-09T04:03:12.245Z,66.15
2024-01-09T04:05:39.446Z,66.55
2024-01-09T04:08:06.649Z,64.25
2024-01-09T04:10:33.819Z,67.79
2024-01-09T04:13:02.444Z,66.28
2024-01-09T04:15:29.462Z,65.89
2024-01-09T04:17:56.615Z,65.91
2024-01-09T04:20:23.758Z,66.12
2024-01-09T04:22:50.841Z,65.93
2024-01-09T04:25:17.880Z,66.49
2024-01-09T04:27:45.005Z,65.71
2024-01-09T04:30:12.558Z,67.18
2024-01-09T04:32:39.802Z,65.73
2024-01-09T04:35:07.084Z,66.47
2024-01-09T04:37:34.831Z,66.11
2024-01-09T04:40:01.978Z,65.94
2024-01-09T04:42:29.208Z,67.33
2024-01-09T04:44:56.334Z,65.66
2024-01-09T04:47:23.808Z,67.18
2024-01-09T04:49:51.030Z,66.90
2024-01-09T04:52:18.093Z,66.94
2024-01-09T04:54:45.172Z,67.65
2024-01-09T04:57:12.213Z,67.00
2024-01-09T04:59:42.684Z,66.99
2024-01-09T05:02:10.466Z,66.60
2024-01-09T05:04:37.527Z,67.71
2024-01-09T05:07:04.592Z,68.65
2024-01-09T05:09:31.648Z,67.23
2024-01-09T05:11:58.783Z,68.28
2024-01-09T05:14:25.955Z,68.90
2024-01-09T05:16:53.080Z,68.24
2024-01-09T05:19:20.201Z,67.94
2024-01-09T05:21:48.124Z,67.65
2024-01-09T05:24:15.163Z,66.99
2024-01-09T05:26:43.421Z,68.58
2024-01-09T05:29:10.533Z,67.56
2024-01-09T05:31:43.812Z,66.77
2024-01-09T05:34:11.104Z,66.46
2024-01-09T05:36:38.319Z,66.82
2024-01-09T05:39:05.357Z,66.11
2024-01-09T05:41:32.419Z,66.74
2024-01-09T05:43:59.508Z,66.25
2024-01-09T05:46:26.564Z,67.32
2024-01-09T05:48:54.007Z,66.42
2024-01-09T05:51:21.175Z,65.50
2024-01-09T05:53:51.285Z,65.62
2024-01-09T05:56:18.984Z,66.69
2024-01-09T05:58:46.144Z,65.87
2024-01-09T06:01:13.218Z,65.60
2024-01-09T06:03:40.278Z,66.13
2024-01-09T06:06:07.779Z,64.83
2024-01-09T06:08:34.944Z,67.42
2024-01-09T06:11:01.979Z,68.78
2024-01-09T06:13:30.914Z,67.16
2024-01-09T06:15:57.981Z,67.21
2024-01-09T06:18:25.223Z,68.84
2024-01-09T06:20:56.671Z,68.83
2024-01-09T06:23:23.797Z,66.75
2024-01-09T06:25:51.631Z,66.53
2024-01-09T06:28:18.648Z,66.13
2024-01-09T06:30:45.912Z,66.35
2024-01-09T06:33:13.269Z,66.66
2024-01-09T06:35:40.379Z,66.19
2024-01-09T06:38:08.942Z,66.87
2024-01-09T06:40:35.989Z,65.50
2024-01-09T06:43:03.030Z,66.45
2024-01-09T06:45:30.089Z,65.14
2024-01-09T06:47:57.183Z,67.70
2024-01-09T06:50:33.231Z,67.67
2024-01-09T06:53:04.687Z,65.42
2024-01-09T06:55:31.837Z,67.04
2024-01-09T06:57:58.895Z,67.71
2024-01-09T07:00:25.983Z,68.04
2024-01-09T07:02:53.317Z,68.45
2024-01-09T07:05:20.502Z,68.46
2024-01-09T07:07:50.551Z,68.29
2024-01-09T07:10:19.226Z,67.37
2024-01-09T07:12:46.419Z,67.56
2024-01-09T07:15:16.608Z,69.06
2024-01-09T07:17:46.697Z,67.95
2024-01-09T07:20:14.102Z,69.28
2024-01-09T07:22:43.873Z,67.79
2024-01-09T07:25:15.075Z,68.08
2024-01-09T07:27:42.486Z,68.14
2024-01-09T07:30:10.140Z,69.59
2024-01-09T07:32:37.432Z,67.81
2024-01-09T07:35:05.187Z,69.58
2024-01-09T07:37:32.283Z,68.20
2024-01-09T07:39:59.448Z,68.27
2024-01-09T07:42:26.534Z,68.71
2024-01-09T07:44:53.700Z,68.65
2024-01-09T07:47:20.822Z,67.93
2024-01-09T07:49:47.943Z,67.88
2024-01-09T07:52:15.016Z,68.75
2024-01-09T07:54:42.593Z,67.52
2024-01-09T07:57:18.740Z,68.03
2024-01-09T07:59:49.662Z,68.18
2024-01-09T08:02:17.178Z,69.17
2024-01-09T08:04:44.379Z,67.84
2024-01-09T08:07:11.550Z,68.56
2024-01-09T08:09:38.719Z,68.43
2024-01-09T08:12:05.840Z,67.83
2024-01-09T08:14:33.017Z,69.39
2024-01-09T08:17:00.333Z,67.75
2024-01-09T08:19:27.433Z,68.59
2024-01-09T08:21:54.534Z,67.67
2024-01-09T08:24:21.634Z,68.48
2024-01-09T08:26:50.027Z,66.96
2024-01-09T08:29:17.623Z,68.03
2024-01-09T08:31:46.050Z,67.49
2024-01-09T08:34:14.160Z,67.83
2024-01-09T08:36:44.093Z,68.02
2024-01-09T08:39:11.905Z,67.97
2024-01-09T08:41:39.121Z,67.89
2024-01-09T08:44:06.258Z,69.03
2024-01-09T08:46:34.318Z,70.13
2024-01-09T08:49:01.797Z,69.18
2024-01-09T08:51:29.372Z,68.20
2024-01-09T08:53:57.135Z,67.67
2024-01-09T08:56:24.331Z,67.23
2024-01-09T08:58:51.509Z,66.10
2024-01-09T09:01:24.829Z,65.93
2024-01-09T09:03:52.021Z,65.74
2024-01-09T09:06:19.897Z,65.57
2024-01-09T09:08:47.100Z,65.58
2024-01-09T09:11:17.678Z,65.81
2024-01-09T09:13:45.235Z,65.48
2024-01-09T09:16:12.800Z,63.17
2024-01-09T09:18:40.217Z,62.88
2024-01-09T09:21:07.474Z,63.34
2024-01-09T09:23:34.776Z,64.98
2024-01-09T09:26:02.346Z,63.23
2024-01-09T09:28:40.369Z,62.49
2024-01-09T09:31:12.965Z,63.71
2024-01-09T09:33:42.805Z,63.36
2024-01-09T09:36:10.555Z,62.70
2024-01-09T09:38:37.672Z,62.66
2024-01-09T09:41:06.724Z,62.13
2024-01-09T09:43:38.175Z,64.17
2024-01-09T09:46:11.786Z,62.13
2024-01-09T09:48:41.007Z,63.97
2024-01-09T09:51:10.075Z,63.54
2024-01-09T09:53:37.169Z,63.39
2024-01-09T09:56:04.468Z,62.51
2024-01-09T09:58:32.557Z,62.42
2024-01-09T10:01:00.773Z,62.94
2024-01-09T10:03:32.813Z,60.57
2024-01-09T10:06:07.914Z,57.13
2024-01-09T10:08:36.042Z,55.68
2024-01-09T10:11:03.295Z,56.00
2024-01-09T10:13:30.983Z,54.51
2024-01-09T10:15:59.151Z,52.90
2024-01-09T10:18:32.322Z,54.23
2024-01-09T10:21:00.982Z,54.46
2024-01-09T10:23:31.219Z,55.79
2024-01-09T10:25:58.325Z,51.52
2024-01-09T10:28:25.582Z,49.65
2024-01-09T10:30:56.721Z,53.49
2024-01-09T10:33:24.338Z,52.10
2024-01-09T10:35:51.589Z,52.18
2024-01-09T10:38:30.892Z,52.72
2024-01-09T10:40:58.985Z,52.87
2024-01-09T10:43:30.711Z,50.67
2024-01-09T10:46:01.254Z,51.49
2024-01-09T10:48:32.738Z,52.37
2024-01-09T10:50:59.918Z,50.68
2024-01-09T10:53:32.643Z,51.86
2024-01-09T10:56:03.363Z,51.07
2024-01-09T10:58:31.003Z,51.55
2024-01-09T11:00:58.072Z,52.84
2024-01-09T11:03:25.305Z,51.10
2024-01-09T11:06:00.833Z,51.83
2024-01-09T11:08:34.528Z,52.75
2024-01-09T11:11:05.404Z,50.79
2024-01-09T11:13:36.007Z,52.38
2024-01-09T11:16:04.069Z,53.35
2024-01-09T11:18:34.055Z,50.30
2024-01-09T11:21:07.892Z,52.23
2024-01-09T11:23:44.078Z,51.75
2024-01-09T11:26:14.513Z,53.37
2024-01-09T11:28:44.096Z,52.53
2024-01-09T11:31:14.629Z,52.98
2024-01-09T11:33:43.857Z,52.56
2024-01-09T11:36:15.640Z,52.56
2024-01-09T11:38:43.453Z,52.51
2024-01-09T11:41:11.375Z,52.82
2024-01-09T11:43:57.401Z,50.57
2024-01-09T11:46:25.585Z,50.98
2024-01-09T11:48:53.024Z,50.79
2024-01-09T11:51:22.169Z,50.09
2024-01-09T11:53:49.679Z,50.41
2024-01-09T11:56:18.003Z,51.00
2024-01-09T11:58:46.479Z,49.82
2024-01-09T12:01:13.768Z,49.63
2024-01-09T12:03:40.929Z,49.39
2024-01-09T12:06:08.120Z,48.84
2024-01-09T12:08:35.321Z,48.47
2024-01-09T12:11:03.590Z,50.62
2024-01-09T12:13:31.068Z,50.09
2024-01-09T12:15:58.197Z,51.48
2024-01-09T12:18:25.450Z,48.06
2024-01-09T12:20:56.774Z,48.10
2024-01-09T12:23:23.801Z,50.15
2024-01-09T12:25:51.092Z,47.98
2024-01-09T12:28:18.139Z,50.21
2024-01-09T12:30:45.202Z,46.96
2024-01-09T12:33:12.494Z,49.40
2024-01-09T12:35:43.320Z,46.58
2024-01-09T12:38:11.961Z,47.65
2024-01-09T12:40:39.070Z,48.81
2024-01-09T12:43:12.423Z,45.62
2024-01-09T12:45:40.569Z,36.75
2024-01-09T12:48:10.005Z,37.47
2024-01-09T12:50:37.338Z,42.29
2024-01-09T12:53:04.664Z,40.22
2024-01-09T12:55:31.823Z,36.77
2024-01-09T12:57:59.325Z,34.76
2024-01-09T13:00:27.582Z,34.61
2024-01-09T13:02:55.160Z,35.65
2024-01-09T13:05:22.379Z,33.03
2024-01-09T13:07:49.933Z,33.54
2024-01-09T13:10:17.157Z,34.76
2024-01-09T13:12:44.270Z,34.32
2024-01-09T13:15:11.584Z,34.32
2024-01-09T13:17:38.970Z,32.70
2024-01-09T13:20:08.284Z,32.85
2024-01-09T13:23:46.698Z,32.46
2024-01-09T13:25:22.867Z,33.18
2024-01-09T13:27:51.168Z,33.18
2024-01-09T13:32:48.758Z,30.71
2024-01-09T13:35:16.354Z,32.43
2024-01-09T13:37:44.834Z,31.07
2024-01-09T13:40:13.240Z,31.43
2024-01-09T13:42:40.470Z,31.89
2024-01-09T13:45:08.384Z,32.14
2024-01-09T13:47:37.538Z,31.15
2024-01-09T13:52:36.131Z,32.89
2024-01-09T13:55:05.160Z,31.94
2024-01-09T13:57:33.082Z,28.43
2024-01-09T14:00:00.909Z,28.45
2024-01-09T14:02:28.138Z,30.32
2024-01-09T14:04:55.305Z,28.46
2024-01-09T14:07:22.358Z,30.03
2024-01-09T14:09:49.449Z,30.43
2024-01-09T14:12:16.507Z,29.47
2024-01-09T14:14:43.649Z,29.88
2024-01-09T14:17:10.749Z,30.31
2024-01-09T14:19:37.904Z,29.81
2024-01-09T14:22:04.925Z,30.74
2024-01-09T14:24:31.997Z,29.64
2024-01-09T14:27:00.252Z,29.30
2024-01-09T14:29:28.428Z,30.20
2024-01-09T14:31:55.744Z,32.23
2024-01-09T14:34:22.999Z,30.45
2024-01-09T14:36:50.047Z,30.85
2024-01-09T14:39:17.281Z,31.76
2024-01-09T14:41:44.828Z,33.11
2024-01-09T14:44:11.896Z,31.21
2024-01-09T14:46:39.002Z,30.24
2024-01-09T14:49:06.081Z,31.50
2024-01-09T14:51:37.247Z,33.94
2024-01-09T14:54:04.510Z,30.91
2024-01-09T14:56:31.520Z,31.22
2024-01-09T14:58:58.719Z,32.44
2024-01-09T15:01:25.949Z,31.46
2024-01-09T15:03:53.118Z,32.19
2024-01-09T15:06:20.321Z,32.74
2024-01-09T15:08:47.415Z,34.26
2024-01-09T15:11:14.657Z,49.74
2024-01-09T15:13:42.875Z,33.87
2024-01-09T15:16:09.976Z,33.02
2024-01-09T15:18:37.148Z,31.81
2024-01-09T15:21:04.853Z,33.23
2024-01-09T15:23:32.242Z,34.86
2024-01-09T15:25:59.384Z,34.60
2024-01-09T15:28:31.000Z,34.57
2024-01-09T15:30:58.144Z,33.08
2024-01-09T15:33:25.321Z,36.23
2024-01-09T15:35:56.505Z,37.06
2024-01-09T15:38:23.687Z,35.10
2024-01-09T15:40:50.830Z,37.13
2024-01-09T15:43:18.493Z,35.98
2024-01-09T15:45:45.581Z,35.78
2024-01-09T15:48:12.669Z,37.71
2024-01-09T15:50:39.950Z,38.67
2024-01-09T15:53:07.275Z,37.43
2024-01-09T15:55:34.454Z,39.24
2024-01-09T15:58:03.672Z,39.17
2024-01-09T16:00:30.786Z,40.56
2024-01-09T16:02:57.929Z,42.16
2024-01-09T16:05:26.410Z,43.38
2024-01-09T16:07:55.389Z,43.83
2024-01-09T16:10:22.485Z,43.47
2024-01-09T16:12:49.688Z,45.10
2024-01-09T16:15:16.744Z,46.18
2024-01-09T16:17:45.679Z,48.64
2024-01-09T16:20:13.739Z,48.29
2024-01-09T16:22:41.088Z,46.96
2024-01-09T16:25:10.795Z,49.67
2024-01-09T16:27:37.931Z,49.57
2024-01-09T16:30:06.892Z,49.88
2024-01-09T16:32:34.034Z,50.42
2024-01-09T16:35:01.392Z,49.69
2024-01-09T16:37:28.674Z,50.15
2024-01-09T16:39:57.212Z,50.07
2024-01-09T16:42:25.435Z,51.58
2024-01-09T16:44:52.565Z,51.15
2024-01-09T16:47:19.724Z,49.58
2024-01-09T16:49:48.714Z,50.00
2024-01-09T16:52:15.868Z,49.72
2024-01-09T16:54:43.750Z,49.35
2024-01-09T16:57:10.937Z,48.77
2024-01-09T16:59:38.158Z,49.91
2024-01-09T17:02:05.316Z,50.71
2024-01-09T17:04:32.571Z,48.92
2024-01-09T17:06:59.739Z,51.30
2024-01-09T17:09:26.770Z,50.70
2024-01-09T17:11:53.833Z,50.42
2024-01-09T17:14:20.893Z,51.00
2024-01-09T17:16:50.621Z,48.69
2024-01-09T17:19:23.995Z,49.58
2024-01-09T17:21:51.114Z,49.26
2024-01-09T17:24:18.149Z,49.80
2024-01-09T17:26:45.148Z,49.12
2024-01-09T17:29:12.314Z,50.67
2024-01-09T17:31:39.400Z,48.16
2024-01-09T17:34:06.594Z,50.00
2024-01-09T17:36:35.831Z,49.66
2024-01-09T17:39:02.946Z,49.01
2024-01-09T17:41:29.996Z,48.76
2024-01-09T17:43:57.398Z,50.13
2024-01-09T17:46:24.530Z,49.52
2024-01-09T17:48:51.748Z,49.83
2024-01-09T17:51:18.919Z,50.55
2024-01-09T17:53:45.926Z,50.53
2024-01-09T17:56:14.201Z,49.86
2024-01-09T17:58:41.308Z,50.91
2024-01-09T18:01:09.030Z,50.34
2024-01-09T18:03:36.133Z,49.45
2024-01-09T18:06:03.379Z,50.33
2024-01-09T18:08:31.393Z,50.74
2024-01-09T18:10:58.607Z,50.37
2024-01-09T18:13:26.094Z,50.45
2024-01-09T18:15:56.780Z,51.17
2024-01-09T18:18:23.912Z,52.96
2024-01-09T18:20:51.040Z,51.79
2024-01-09T18:23:18.229Z,51.93
2024-01-09T18:25:45.360Z,53.48
2024-01-09T18:28:14.353Z,52.15
2024-01-09T18:30:43.222Z,53.21
2024-01-09T18:33:10.413Z,53.66
2024-01-09T18:35:37.489Z,53.61
2024-01-09T18:38:04.689Z,54.10
2024-01-09T18:40:31.933Z,52.73
2024-01-09T18:42:59.097Z,53.08
2024-01-09T18:45:26.242Z,53.29
2024-01-09T18:47:53.324Z,53.95
2024-01-09T18:50:20.589Z,54.59
2024-01-09T18:52:47.786Z,53.44
2024-01-09T18:55:16.274Z,53.98
2024-01-09T18:57:44.550Z,56.01
2024-01-09T19:00:12.395Z,55.21
2024-01-09T19:02:39.874Z,54.24
2024-01-09T19:05:07.983Z,54.33
2024-01-09T19:07:35.502Z,54.79
2024-01-09T19:10:03.109Z,53.68
2024-01-09T19:12:30.204Z,55.32
2024-01-09T19:14:57.233Z,56.47
2024-01-09T19:17:24.399Z,55.86
2024-01-09T19:19:55.327Z,54.87
2024-01-09T19:22:22.503Z,54.88
2024-01-09T19:24:49.623Z,55.43
2024-01-09T19:27:16.679Z,56.11
2024-01-09T19:29:43.804Z,55.61
2024-01-09T19:32:14.767Z,56.91
2024-01-09T19:34:41.936Z,57.31
2024-01-09T19:37:10.556Z,58.05
2024-01-09T19:39:38.093Z,58.50
2024-01-09T19:42:05.231Z,57.99
2024-01-09T19:44:32.356Z,58.58
2024-01-09T19:46:59.503Z,59.87
2024-01-09T19:49:31.141Z,58.95
2024-01-09T19:52:05.549Z,59.97
2024-01-09T19:54:36.496Z,58.79
2024-01-09T19:57:05.348Z,60.38
2024-01-09T19:59:34.514Z,60.71
2024-01-09T20:02:02.269Z,60.93
2024-01-09T20:04:29.416Z,60.23
2024-01-09T20:06:56.676Z,60.53
2024-01-09T20:09:24.768Z,60.77
2024-01-09T20:11:55.202Z,60.72
2024-01-09T20:14:23.714Z,60.06
2024-01-09T20:16:50.794Z,61.57
2024-01-09T20:19:17.977Z,61.43
2024-01-09T20:21:46.335Z,63.18
2024-01-09T20:24:13.703Z,62.22
2024-01-09T20:26:40.969Z,62.52
2024-01-09T20:29:09.093Z,62.14
2024-01-09T20:31:38.475Z,62.32
2024-01-09T20:34:06.141Z,62.48
2024-01-09T20:36:33.333Z,61.66
2024-01-09T20:39:02.226Z,63.21
2024-01-09T20:41:29.310Z,64.07
2024-01-09T20:43:56.403Z,63.43
2024-01-09T20:46:24.535Z,62.80
2024-01-09T20:48:51.789Z,62.65
2024-01-09T20:51:18.937Z,63.08
2024-01-09T20:53:45.986Z,63.01
2024-01-09T20:56:13.281Z,63.14
2024-01-09T20:58:40.440Z,62.80
2024-01-09T21:01:07.601Z,62.47
2024-01-09T21:03:34.693Z,62.36
2024-01-09T21:06:01.997Z,63.41
2024-01-09T21:08:30.947Z,63.54
2024-01-09T21:10:58.119Z,63.65
2024-01-09T21:13:25.190Z,63.20
2024-01-09T21:15:56.704Z,64.24
2024-01-09T21:18:24.050Z,64.21
2024-01-09T21:20:51.245Z,63.37
2024-01-09T21:23:26.978Z,63.36
2024-01-09T21:25:59.169Z,63.19
2024-01-09T21:28:30.977Z,63.34
2024-01-09T21:30:58.332Z,63.52
2024-01-09T21:33:27.117Z,64.38
2024-01-09T21:35:56.778Z,64.42
2024-01-09T21:38:24.058Z,65.03
2024-01-09T21:40:57.842Z,63.75
2024-01-09T21:43:31.029Z,64.87
2024-01-09T21:45:58.190Z,65.60
2024-01-09T21:48:25.419Z,65.08
2024-01-09T21:50:56.993Z,64.95
2024-01-09T21:53:24.187Z,64.65
2024-01-09T21:55:51.286Z,66.81
2024-01-09T21:58:18.340Z,66.71
2024-01-09T22:00:45.426Z,66.55
2024-01-09T22:03:12.478Z,66.75
2024-01-09T22:05:39.543Z,66.89
2024-01-09T22:08:06.808Z,66.80
2024-01-09T22:10:34.048Z,66.37
2024-01-09T22:13:01.125Z,66.10
2024-01-09T22:15:28.153Z,66.91
2024-01-09T22:17:55.342Z,68.07
2024-01-09T22:20:22.652Z,66.96
2024-01-09T22:22:49.904Z,68.33
2024-01-09T22:25:17.069Z,66.85
2024-01-09T22:27:44.181Z,67.04
2024-01-09T22:30:11.699Z,67.54
2024-01-09T22:32:38.901Z,66.45
2024-01-09T22:35:06.146Z,67.44
2024-01-09T22:37:33.300Z,67.04
2024-01-09T22:40:00.357Z,67.47
2024-01-09T22:42:27.511Z,67.18
2024-01-09T22:44:54.631Z,67.37
2024-01-09T22:47:21.769Z,67.21
2024-01-09T22:49:48.980Z,67.02
2024-01-09T22:52:16.343Z,67.98
2024-01-09T22:54:46.938Z,67.98
2024-01-09T22:57:14.144Z,67.26
2024-01-09T22:59:41.168Z,68.18
2024-01-09T23:02:08.664Z,68.01
2024-01-09T23:04:39.557Z,67.91
2024-01-09T23:07:06.717Z,67.52
2024-01-09T23:09:34.044Z,66.82
2024-01-09T23:12:01.226Z,67.63
2024-01-09T23:14:28.493Z,67.74
2024-01-09T23:16:55.847Z,68.00
2024-01-09T23:19:23.009Z,69.16
2024-01-09T23:21:50.153Z,68.94
2024-01-09T23:24:17.285Z,67.99
2024-01-09T23:26:44.320Z,68.67
2024-01-09T23:29:11.431Z,68.35
2024-01-09T23:31:38.736Z,68.76
2024-01-09T23:34:05.861Z,69.92
2024-01-09T23:36:33.050Z,69.39
2024-01-09T23:39:00.081Z,69.39
2024-01-09T23:41:27.671Z,68.83
2024-01-09T23:43:55.041Z,70.00
2024-01-09T23:46:22.184Z,70.42
2024-01-09T23:48:49.348Z,70.19
2024-01-09T23:51:16.434Z,69.40
2024-01-09T23:53:43.447Z,68.58
2024-01-09T23:56:10.638Z,69.20
2024-01-09T23:58:39.003Z,68.67
